Time;durP1;ratioP1;P1;durP2;ratioP2;P2;SDS_P1;SDS_P2;PMS_P1;PMS_P2;Temp;Humidity;BMP_temperature;BMP_pressure;BME280_temperature;BME280_humidity;BME280_pressure;Samples;Min_cycle;Max_cycle;Signal;HPM_P1;HPM_P2
2022/04/05 00:01:37;;;;;;;4.97;1.10;;;;;;;;;;4986703;28;20053;-62
2022/04/05 00:04:03;;;;;;;4.53;0.90;;;;;;;;;;4987057;28;20044;-62
2022/04/05 00:06:29;;;;;;;4.80;1.05;;;;;;;;;;4987666;28;20034;-62
2022/04/05 00:08:55;;;;;;;3.80;0.70;;;;;;;;;;4987180;28;20420;-62
2022/04/05 00:11:21;;;;;;;5.10;0.50;;;;;;;;;;4987484;28;20089;-62
2022/04/05 00:13:47;;;;;;;7.53;0.57;;;;;;;;;;4987160;28;20104;-61
2022/04/05 00:16:14;;;;;;;3.25;0.70;;;;;;;;;;4986410;28;20046;-62
2022/04/05 00:18:40;;;;;;;6.65;1.20;;;;;;;;;;4987137;28;20083;-62
2022/04/05 00:21:06;;;;;;;4.38;0.70;;;;;;;;;;4987016;28;20049;-62
2022/04/05 00:23:32;;;;;;;3.20;0.55;;;;;;;;;;4987301;28;20038;-62
2022/04/05 00:25:59;;;;;;;4.00;0.63;;;;;;;;;;4986741;28;20045;-62
2022/04/05 00:28:25;;;;;;;3.70;0.50;;;;;;;;;;4986878;28;20836;-62
2022/04/05 00:30:51;;;;;;;2.38;0.60;;;;;;;;;;4986795;28;20038;-62
2022/04/05 00:33:17;;;;;;;3.42;0.38;;;;;;;;;;4986518;28;20483;-62
2022/04/05 00:35:43;;;;;;;3.92;0.40;;;;;;;;;;4986739;28;20154;-62
2022/04/05 00:38:09;;;;;;;1.80;0.50;;;;;;;;;;4986583;28;20081;-62
2022/04/05 00:40:36;;;;;;;4.03;0.88;;;;;;;;;;4986706;28;20046;-62
2022/04/05 00:43:05;;;;;;;4.72;0.50;;;;;;;;;;4986476;28;20570;-62
2022/04/05 00:45:32;;;;;;;3.22;0.50;;;;;;;;;;4986575;28;20046;-61
2022/04/05 00:47:59;;;;;;;5.70;0.40;;;;;;;;;;4985426;28;20093;-61
2022/04/05 00:50:27;;;;;;;7.90;0.50;;;;;;;;;;4986878;28;20069;-62
2022/04/05 00:52:53;;;;;;;4.32;0.40;;;;;;;;;;4986316;28;20129;-62
2022/04/05 00:55:22;;;;;;;5.55;0.40;;;;;;;;;;4986617;28;20049;-61
2022/04/05 00:57:50;;;;;;;3.80;0.60;;;;;;;;;;4986852;28;20038;-61
2022/04/05 01:00:16;;;;;;;1.67;0.30;;;;;;;;;;4986161;28;20121;-62
2022/04/05 01:02:44;;;;;;;4.50;0.82;;;;;;;;;;4968091;28;20493;-62
2022/04/05 01:05:10;;;;;;;3.05;0.40;;;;;;;;;;4967190;28;20050;-61
2022/04/05 01:07:39;;;;;;;1.83;0.47;;;;;;;;;;4967389;28;20137;-61
2022/04/05 01:10:06;;;;;;;1.55;0.30;;;;;;;;;;4970168;28;20074;-62
2022/04/05 01:12:33;;;;;;;4.28;0.75;;;;;;;;;;4969487;28;20081;-61
2022/04/05 01:14:59;;;;;;;3.47;0.57;;;;;;;;;;4984522;28;20058;-62
2022/04/05 01:17:26;;;;;;;7.47;0.50;;;;;;;;;;4985101;28;20086;-62
2022/04/05 01:19:52;;;;;;;3.35;0.40;;;;;;;;;;4985047;28;20026;-62
2022/04/05 01:22:18;;;;;;;4.45;0.35;;;;;;;;;;4986103;28;20045;-62
2022/04/05 01:24:45;;;;;;;3.13;0.30;;;;;;;;;;4985979;28;20038;-62
2022/04/05 01:27:17;;;;;;;5.43;0.50;;;;;;;;;;4985648;28;20038;-61
2022/04/05 01:29:43;;;;;;;3.60;0.45;;;;;;;;;;4985631;28;20125;-61
2022/04/05 01:32:10;;;;;;;1.40;0.40;;;;;;;;;;4984120;28;20130;-62
2022/04/05 01:34:37;;;;;;;2.78;0.40;;;;;;;;;;4985806;28;20484;-62
2022/04/05 01:37:05;;;;;;;5.38;0.70;;;;;;;;;;4985841;28;20125;-62
2022/04/05 01:39:33;;;;;;;2.88;0.47;;;;;;;;;;4985472;28;20038;-62
2022/04/05 01:42:01;;;;;;;4.57;0.70;;;;;;;;;;4985878;28;21118;-62
2022/04/05 01:44:28;;;;;;;2.47;0.40;;;;;;;;;;4985840;28;20046;-62
2022/04/05 01:46:54;;;;;;;4.20;0.70;;;;;;;;;;4984599;28;20125;-62
2022/04/05 01:49:21;;;;;;;3.28;0.57;;;;;;;;;;4986068;28;20117;-61
2022/04/05 01:51:47;;;;;;;4.82;0.55;;;;;;;;;;4982113;28;20046;-62
2022/04/05 01:54:15;;;;;;;6.35;0.70;;;;;;;;;;4985410;28;20050;-61
2022/04/05 01:56:42;;;;;;;2.05;0.70;;;;;;;;;;4985117;28;20046;-62
2022/04/05 01:59:08;;;;;;;6.47;0.77;;;;;;;;;;4968473;28;20051;-61
2022/04/05 02:01:35;;;;;;;5.60;0.70;;;;;;;;;;4984928;28;20484;-61
2022/04/05 02:04:01;;;;;;;3.70;0.60;;;;;;;;;;4985170;28;20476;-61
2022/04/05 02:06:27;;;;;;;3.60;0.47;;;;;;;;;;4968219;28;20089;-62
2022/04/05 02:08:54;;;;;;;3.17;0.52;;;;;;;;;;4985303;28;20113;-62
2022/04/05 02:11:20;;;;;;;4.68;0.70;;;;;;;;;;4985945;28;20054;-61
2022/04/05 02:13:46;;;;;;;6.35;0.60;;;;;;;;;;4967349;28;20703;-61
2022/04/05 02:16:12;;;;;;;3.78;0.60;;;;;;;;;;4984396;28;20568;-61
2022/04/05 02:18:39;;;;;;;4.07;0.40;;;;;;;;;;4985589;28;20760;-61
2022/04/05 02:21:05;;;;;;;4.50;0.73;;;;;;;;;;4984195;28;20069;-61
2022/04/05 02:23:31;;;;;;;3.60;0.60;;;;;;;;;;4984305;28;20053;-62
2022/04/05 02:25:58;;;;;;;3.08;0.65;;;;;;;;;;4985432;28;20038;-62
2022/04/05 02:28:24;;;;;;;1.92;0.55;;;;;;;;;;4985423;28;20043;-62
2022/04/05 02:30:50;;;;;;;4.18;0.60;;;;;;;;;;4969043;28;20042;-62
2022/04/05 02:33:17;;;;;;;4.78;0.75;;;;;;;;;;4971348;28;20034;-61
2022/04/05 02:35:43;;;;;;;2.60;0.50;;;;;;;;;;4970312;28;20053;-61
2022/04/05 02:38:09;;;;;;;3.33;0.95;;;;;;;;;;4969993;28;20043;-61
2022/04/05 02:40:36;;;;;;;4.03;0.70;;;;;;;;;;4970130;28;20046;-61
2022/04/05 02:43:03;;;;;;;5.45;0.73;;;;;;;;;;4976509;28;20039;-61
2022/04/05 02:45:30;;;;;;;5.97;0.82;;;;;;;;;;4988154;28;20054;-62
2022/04/05 02:47:56;;;;;;;7.32;0.90;;;;;;;;;;4986380;28;20113;-61
2022/04/05 02:50:22;;;;;;;4.32;0.60;;;;;;;;;;4967305;28;20046;-62
2022/04/05 02:52:49;;;;;;;7.85;0.75;;;;;;;;;;4971013;28;20042;-61
2022/04/05 02:55:16;;;;;;;3.30;0.68;;;;;;;;;;4969455;28;20110;-61
2022/04/05 02:57:43;;;;;;;8.13;1.80;;;;;;;;;;4986441;28;20046;-61
2022/04/05 03:00:11;;;;;;;3.60;0.77;;;;;;;;;;4987464;28;20050;-62
2022/04/05 03:02:38;;;;;;;6.85;1.25;;;;;;;;;;4984338;28;20038;-61
2022/04/05 03:05:06;;;;;;;4.68;0.70;;;;;;;;;;4988303;28;20084;-62
2022/04/05 03:07:34;;;;;;;4.43;0.73;;;;;;;;;;4988188;28;20054;-61
2022/04/05 03:10:00;;;;;;;5.80;1.13;;;;;;;;;;4988368;28;20085;-61
2022/04/05 03:12:26;;;;;;;3.67;0.95;;;;;;;;;;4988803;28;20049;-61
2022/04/05 03:14:52;;;;;;;3.72;0.73;;;;;;;;;;4988005;28;20046;-62
2022/04/05 03:17:19;;;;;;;3.88;0.93;;;;;;;;;;4988035;28;20054;-61
2022/04/05 03:19:45;;;;;;;6.85;1.00;;;;;;;;;;4988378;28;20045;-61
2022/04/05 03:22:11;;;;;;;8.55;0.90;;;;;;;;;;4988223;28;20046;-61
2022/04/05 03:24:38;;;;;;;6.10;1.33;;;;;;;;;;4970622;28;20047;-61
2022/04/05 03:27:04;;;;;;;6.10;0.70;;;;;;;;;;4988173;28;20045;-61
2022/04/05 03:29:31;;;;;;;3.83;0.90;;;;;;;;;;4988160;28;20403;-61
2022/04/05 03:31:57;;;;;;;6.47;1.00;;;;;;;;;;4987246;28;20041;-61
2022/04/05 03:34:23;;;;;;;5.30;1.17;;;;;;;;;;4987846;28;20049;-62
2022/04/05 03:36:49;;;;;;;5.55;1.17;;;;;;;;;;4988793;28;20038;-61
2022/04/05 03:39:15;;;;;;;7.18;1.08;;;;;;;;;;4987848;28;20046;-61
2022/04/05 03:41:41;;;;;;;7.20;1.20;;;;;;;;;;4987549;28;20038;-61
2022/04/05 03:44:08;;;;;;;4.13;0.85;;;;;;;;;;4987299;28;20046;-61
2022/04/05 03:46:34;;;;;;;6.30;1.00;;;;;;;;;;4986998;28;20389;-61
2022/04/05 03:49:00;;;;;;;8.40;1.13;;;;;;;;;;4987377;28;20042;-61
2022/04/05 03:51:26;;;;;;;6.93;1.05;;;;;;;;;;4987734;28;20038;-62
2022/04/05 03:53:54;;;;;;;8.57;1.20;;;;;;;;;;4987009;28;20054;-62
2022/04/05 03:56:20;;;;;;;5.63;1.13;;;;;;;;;;4984220;28;20047;-61
2022/04/05 03:58:47;;;;;;;12.98;1.40;;;;;;;;;;4987801;28;20106;-61
2022/04/05 04:01:13;;;;;;;3.90;1.05;;;;;;;;;;4985917;28;20042;-62
2022/04/05 04:03:39;;;;;;;7.20;1.30;;;;;;;;;;4987772;28;20084;-62
2022/04/05 04:06:05;;;;;;;5.20;0.80;;;;;;;;;;4969691;28;20061;-61
2022/04/05 04:08:32;;;;;;;23.90;4.10;;;;;;;;;;4987653;28;20090;-61
2022/04/05 04:10:58;;;;;;;8.02;1.27;;;;;;;;;;4987177;28;20039;-62
2022/04/05 04:13:24;;;;;;;8.55;1.00;;;;;;;;;;4982257;28;20062;-62
2022/04/05 04:15:50;;;;;;;11.15;1.45;;;;;;;;;;4949908;28;20497;-62
2022/04/05 04:18:16;;;;;;;9.43;1.25;;;;;;;;;;4966826;28;20413;-62
2022/04/05 04:20:43;;;;;;;7.00;1.35;;;;;;;;;;4967852;28;20071;-61
2022/04/05 04:23:10;;;;;;;7.13;1.30;;;;;;;;;;4948780;28;20441;-61
2022/04/05 04:25:37;;;;;;;8.10;0.90;;;;;;;;;;4932087;28;20086;-62
2022/04/05 04:28:07;;;;;;;8.73;1.40;;;;;;;;;;4964702;28;20121;-61
2022/04/05 04:30:34;;;;;;;8.38;1.25;;;;;;;;;;4966292;28;20134;-62
2022/04/05 04:33:00;;;;;;;6.25;1.38;;;;;;;;;;4966914;28;20042;-61
2022/04/05 04:35:27;;;;;;;9.65;2.05;;;;;;;;;;4949912;28;20394;-61
2022/04/05 04:37:54;;;;;;;8.90;1.05;;;;;;;;;;4966733;28;20043;-62
2022/04/05 04:40:20;;;;;;;8.07;1.38;;;;;;;;;;4966442;28;20049;-61
2022/04/05 04:42:46;;;;;;;5.47;1.13;;;;;;;;;;4966611;28;20050;-62
2022/04/05 04:45:13;;;;;;;5.22;1.38;;;;;;;;;;4963763;28;20477;-62
2022/04/05 04:47:40;;;;;;;8.70;1.42;;;;;;;;;;4964803;28;20133;-62
2022/04/05 04:50:07;;;;;;;7.05;1.83;;;;;;;;;;4966271;28;20049;-62
2022/04/05 04:52:33;;;;;;;6.82;1.20;;;;;;;;;;4966359;28;20101;-61
2022/04/05 04:54:59;;;;;;;12.48;1.23;;;;;;;;;;4965742;28;20042;-61
2022/04/05 04:57:26;;;;;;;5.30;1.65;;;;;;;;;;4966803;28;20114;-62
2022/04/05 04:59:53;;;;;;;4.40;1.20;;;;;;;;;;4948520;28;20099;-62
2022/04/05 05:02:22;;;;;;;9.23;1.25;;;;;;;;;;4948152;28;20047;-62
2022/04/05 05:04:49;;;;;;;4.60;1.30;;;;;;;;;;4949742;28;20050;-62
2022/04/05 05:07:15;;;;;;;9.73;1.60;;;;;;;;;;4966086;28;20054;-61
2022/04/05 05:09:41;;;;;;;5.55;1.50;;;;;;;;;;4966470;28;20107;-61
2022/04/05 05:12:10;;;;;;;6.35;1.30;;;;;;;;;;4965595;28;20505;-61
2022/04/05 05:14:36;;;;;;;9.05;1.45;;;;;;;;;;4980750;28;20066;-61
2022/04/05 05:17:03;;;;;;;10.32;1.42;;;;;;;;;;4985356;28;20054;-61
2022/04/05 05:19:29;;;;;;;5.32;1.27;;;;;;;;;;4985887;28;20122;-61
2022/04/05 05:21:55;;;;;;;3.08;0.93;;;;;;;;;;4985675;28;20038;-62
2022/04/05 05:24:22;;;;;;;8.75;1.00;;;;;;;;;;4986851;28;20764;-61
2022/04/05 05:26:48;;;;;;;3.67;1.20;;;;;;;;;;4986149;28;20389;-61
2022/04/05 05:29:15;;;;;;;7.10;0.98;;;;;;;;;;4984938;28;20532;-61
2022/04/05 05:31:41;;;;;;;7.75;0.90;;;;;;;;;;4980124;28;20049;-61
2022/04/05 05:34:07;;;;;;;11.43;1.10;;;;;;;;;;4977807;28;21550;-61
2022/04/05 05:36:34;;;;;;;10.10;1.20;;;;;;;;;;4979513;28;20546;-62
2022/04/05 05:39:00;;;;;;;2.95;1.00;;;;;;;;;;4980388;28;20038;-62
2022/04/05 05:41:26;;;;;;;4.95;1.02;;;;;;;;;;4979022;28;20349;-62
2022/04/05 05:43:52;;;;;;;9.48;1.33;;;;;;;;;;4979911;28;20480;-62
2022/04/05 05:46:19;;;;;;;4.65;1.30;;;;;;;;;;4977135;28;20408;-62
2022/04/05 05:48:45;;;;;;;6.22;1.20;;;;;;;;;;4982511;28;20042;-61
2022/04/05 05:51:11;;;;;;;2.30;0.90;;;;;;;;;;4985310;28;20046;-62
2022/04/05 05:53:37;;;;;;;6.63;0.98;;;;;;;;;;4985493;28;20046;-61
2022/04/05 05:56:04;;;;;;;7.88;1.38;;;;;;;;;;4985258;28;20046;-61
2022/04/05 05:58:30;;;;;;;10.70;1.27;;;;;;;;;;4968112;28;20034;-59
2022/04/05 06:00:56;;;;;;;6.57;1.00;;;;;;;;;;4985174;28;20121;-59
2022/04/05 06:03:22;;;;;;;5.25;1.25;;;;;;;;;;4985823;28;20081;-60
2022/04/05 06:05:48;;;;;;;7.18;1.50;;;;;;;;;;4985638;28;20046;-59
2022/04/05 06:08:14;;;;;;;5.20;1.17;;;;;;;;;;4967130;28;20062;-59
2022/04/05 06:10:41;;;;;;;5.28;1.13;;;;;;;;;;4985588;28;20050;-59
2022/04/05 06:13:08;;;;;;;7.15;1.00;;;;;;;;;;4985408;28;20058;-59
2022/04/05 06:15:34;;;;;;;6.50;1.30;;;;;;;;;;4985085;28;20058;-59
2022/04/05 06:18:01;;;;;;;5.63;1.23;;;;;;;;;;4985613;28;20455;-59
2022/04/05 06:20:28;;;;;;;3.00;0.77;;;;;;;;;;4984947;28;20078;-59
2022/04/05 06:22:54;;;;;;;3.92;0.70;;;;;;;;;;4985399;28;20089;-59
2022/04/05 06:25:21;;;;;;;6.05;0.80;;;;;;;;;;4985903;28;20569;-59
2022/04/05 06:27:48;;;;;;;6.38;1.00;;;;;;;;;;4985732;28;20038;-59
2022/04/05 06:30:15;;;;;;;7.47;0.90;;;;;;;;;;4984877;28;20069;-59
2022/04/05 06:32:41;;;;;;;4.28;0.90;;;;;;;;;;4985327;28;20556;-59
2022/04/05 06:35:08;;;;;;;6.70;0.77;;;;;;;;;;4985187;28;20043;-59
2022/04/05 06:37:36;;;;;;;6.05;1.08;;;;;;;;;;4985592;28;20046;-58
2022/04/05 06:40:03;;;;;;;8.32;0.63;;;;;;;;;;4985458;28;20069;-59
2022/04/05 06:42:29;;;;;;;4.72;1.27;;;;;;;;;;4968212;28;20075;-59
2022/04/05 06:44:56;;;;;;;6.95;0.80;;;;;;;;;;4985292;28;20065;-59
2022/04/05 06:47:22;;;;;;;3.80;0.80;;;;;;;;;;4984682;28;20142;-59
2022/04/05 06:49:48;;;;;;;5.65;0.80;;;;;;;;;;4985857;28;20049;-59
2022/04/05 06:52:14;;;;;;;4.82;0.63;;;;;;;;;;4985168;28;20184;-59
2022/04/05 06:54:40;;;;;;;3.60;0.70;;;;;;;;;;4985073;28;20042;-59
2022/04/05 06:57:07;;;;;;;6.00;0.70;;;;;;;;;;4985403;28;20042;-59
2022/04/05 06:59:33;;;;;;;2.38;0.68;;;;;;;;;;4985336;28;20071;-59
2022/04/05 07:01:59;;;;;;;3.53;0.57;;;;;;;;;;4983939;28;20049;-59
2022/04/05 07:04:25;;;;;;;3.65;0.60;;;;;;;;;;4985672;28;20049;-59
2022/04/05 07:06:51;;;;;;;3.38;0.50;;;;;;;;;;4985888;28;20058;-59
2022/04/05 07:09:17;;;;;;;2.35;0.70;;;;;;;;;;4985910;28;20077;-59
2022/04/05 07:11:44;;;;;;;4.95;0.77;;;;;;;;;;4985313;28;20069;-59
2022/04/05 07:14:10;;;;;;;3.53;0.50;;;;;;;;;;4984812;28;20097;-59
2022/04/05 07:16:36;;;;;;;3.15;0.70;;;;;;;;;;4985475;28;20529;-59
2022/04/05 07:19:02;;;;;;;4.45;0.80;;;;;;;;;;4988344;28;20381;-59
2022/04/05 07:21:28;;;;;;;3.08;0.98;;;;;;;;;;4988585;28;20049;-59
2022/04/05 07:23:55;;;;;;;5.53;0.70;;;;;;;;;;4988510;28;20504;-59
2022/04/05 07:26:22;;;;;;;1.70;0.50;;;;;;;;;;4988992;28;20043;-59
2022/04/05 07:28:48;;;;;;;4.93;0.63;;;;;;;;;;4988517;28;20050;-59
2022/04/05 07:31:15;;;;;;;2.03;0.30;;;;;;;;;;4987738;28;20755;-59
2022/04/05 07:33:41;;;;;;;3.95;0.50;;;;;;;;;;4988668;28;20049;-59
2022/04/05 07:36:07;;;;;;;2.53;0.38;;;;;;;;;;4988123;28;20153;-59
2022/04/05 07:38:34;;;;;;;2.45;0.68;;;;;;;;;;4988429;28;20077;-59
2022/04/05 07:41:00;;;;;;;2.17;0.45;;;;;;;;;;4988041;28;20440;-59
2022/04/05 07:43:27;;;;;;;3.47;0.60;;;;;;;;;;4988091;28;20508;-59
2022/04/05 07:45:54;;;;;;;5.55;0.50;;;;;;;;;;4987237;28;20097;-59
2022/04/05 07:48:21;;;;;;;2.97;1.30;;;;;;;;;;4988475;28;20104;-59
2022/04/05 07:50:48;;;;;;;5.88;0.50;;;;;;;;;;4988348;28;20049;-59
2022/04/05 07:53:14;;;;;;;5.88;0.43;;;;;;;;;;4988010;28;20045;-61
2022/04/05 07:55:40;;;;;;;2.90;0.65;;;;;;;;;;4987477;28;20068;-61
2022/04/05 07:58:07;;;;;;;2.80;0.70;;;;;;;;;;4988079;28;20049;-61
2022/04/05 08:00:33;;;;;;;4.32;0.50;;;;;;;;;;4987361;28;20515;-62
2022/04/05 08:02:59;;;;;;;4.72;0.60;;;;;;;;;;4987676;28;20178;-62
2022/04/05 08:05:27;;;;;;;4.95;1.08;;;;;;;;;;4954595;28;20061;-61
2022/04/05 08:07:54;;;;;;;3.63;0.40;;;;;;;;;;4987779;28;20492;-62
2022/04/05 08:10:20;;;;;;;5.97;0.70;;;;;;;;;;4987658;28;20054;-61
2022/04/05 08:12:48;;;;;;;2.45;0.50;;;;;;;;;;4987781;28;20870;-62
2022/04/05 08:15:15;;;;;;;3.08;0.50;;;;;;;;;;4967428;28;20066;-61
2022/04/05 08:17:42;;;;;;;1.88;0.60;;;;;;;;;;4968286;28;20076;-61
2022/04/05 08:20:08;;;;;;;3.63;0.50;;;;;;;;;;4968122;28;20070;-61
2022/04/05 08:22:34;;;;;;;1.52;0.40;;;;;;;;;;4967784;28;20050;-61
2022/04/05 08:25:01;;;;;;;1.38;0.52;;;;;;;;;;4950670;28;20090;-62
2022/04/05 08:27:27;;;;;;;2.53;0.55;;;;;;;;;;4967299;28;20778;-61
2022/04/05 08:29:53;;;;;;;2.90;0.82;;;;;;;;;;4966749;28;20076;-62
2022/04/05 08:32:19;;;;;;;3.53;0.50;;;;;;;;;;4968140;28;20047;-61
2022/04/05 08:34:45;;;;;;;2.38;0.85;;;;;;;;;;4967770;28;20047;-61
2022/04/05 08:37:12;;;;;;;2.65;0.70;;;;;;;;;;4967345;28;20046;-61
2022/04/05 08:39:39;;;;;;;4.18;0.90;;;;;;;;;;4968003;28;20517;-61
2022/04/05 08:42:05;;;;;;;3.88;0.75;;;;;;;;;;4967471;28;20511;-62
2022/04/05 08:44:32;;;;;;;3.00;0.50;;;;;;;;;;4950568;28;20433;-62
2022/04/05 08:47:00;;;;;;;4.22;0.77;;;;;;;;;;4966656;28;20050;-62
2022/04/05 08:49:27;;;;;;;2.47;0.60;;;;;;;;;;4967423;28;20055;-62
2022/04/05 08:51:54;;;;;;;4.70;0.60;;;;;;;;;;4967649;28;20061;-62
2022/04/05 08:54:20;;;;;;;2.13;0.50;;;;;;;;;;4967870;28;20404;-61
2022/04/05 08:56:47;;;;;;;1.17;0.50;;;;;;;;;;4967124;28;20054;-61
2022/04/05 08:59:13;;;;;;;4.22;0.55;;;;;;;;;;4967367;28;20054;-62
2022/04/05 09:01:40;;;;;;;1.35;0.60;;;;;;;;;;4966951;28;20125;-62
2022/04/05 09:04:06;;;;;;;2.55;0.70;;;;;;;;;;4966938;28;20548;-62
2022/04/05 09:06:33;;;;;;;1.20;0.50;;;;;;;;;;4967368;28;20050;-62
2022/04/05 09:09:08;;;;;;;1.95;0.50;;;;;;;;;;4967172;28;20066;-61
2022/04/05 09:11:35;;;;;;;4.25;0.65;;;;;;;;;;4967353;28;20046;-62
2022/04/05 09:14:02;;;;;;;3.95;0.70;;;;;;;;;;4976531;28;20054;-62
2022/04/05 09:16:31;;;;;;;1.52;0.65;;;;;;;;;;4984571;28;20137;-62
2022/04/05 09:18:58;;;;;;;2.20;0.57;;;;;;;;;;4985425;28;20063;-62
2022/04/05 09:21:24;;;;;;;2.03;0.50;;;;;;;;;;4986511;28;20047;-62
2022/04/05 09:23:52;;;;;;;3.58;0.40;;;;;;;;;;4986862;28;20113;-61
2022/04/05 09:26:19;;;;;;;2.25;0.40;;;;;;;;;;4986754;28;20058;-62
2022/04/05 09:28:46;;;;;;;1.65;0.40;;;;;;;;;;4986054;28;20078;-61
2022/04/05 09:31:13;;;;;;;4.15;0.68;;;;;;;;;;4985437;28;20061;-62
2022/04/05 09:33:40;;;;;;;2.67;0.65;;;;;;;;;;4986437;28;20034;-61
2022/04/05 09:36:09;;;;;;;1.42;0.40;;;;;;;;;;4985764;28;20046;-62
2022/04/05 09:38:35;;;;;;;0.60;0.30;;;;;;;;;;4968663;28;20178;-61
2022/04/05 09:41:21;;;;;;;2.17;0.30;;;;;;;;;;4985182;28;20093;-61
2022/04/05 09:43:54;;;;;;;0.57;0.20;;;;;;;;;;4986244;28;20539;-62
2022/04/05 09:46:21;;;;;;;1.40;0.30;;;;;;;;;;4985879;28;20049;-62
2022/04/05 09:48:47;;;;;;;2.13;0.68;;;;;;;;;;4986253;28;20038;-61
2022/04/05 09:51:16;;;;;;;0.98;0.30;;;;;;;;;;4985569;28;20046;-61
2022/04/05 09:53:45;;;;;;;0.38;0.20;;;;;;;;;;4985941;28;20054;-61
2022/04/05 09:56:11;;;;;;;2.25;0.32;;;;;;;;;;4985640;28;20053;-62
2022/04/05 09:58:43;;;;;;;0.85;0.30;;;;;;;;;;4986102;28;20046;-62
2022/04/05 10:01:11;;;;;;;1.42;0.30;;;;;;;;;;4984856;28;20504;-62
2022/04/05 10:03:39;;;;;;;0.52;0.40;;;;;;;;;;4986036;28;20046;-61
2022/04/05 10:06:06;;;;;;;0.80;0.40;;;;;;;;;;4985497;28;20093;-61
2022/04/05 10:08:33;;;;;;;0.85;0.40;;;;;;;;;;4984818;28;20046;-61
2022/04/05 10:10:59;;;;;;;1.58;0.50;;;;;;;;;;4985606;28;20042;-62
2022/04/05 10:13:26;;;;;;;1.10;0.52;;;;;;;;;;4980443;28;20054;-62
2022/04/05 10:15:52;;;;;;;5.25;0.75;;;;;;;;;;4965435;28;20055;-63
2022/04/05 10:18:20;;;;;;;2.10;0.65;;;;;;;;;;4966421;28;20047;-61
2022/04/05 10:20:48;;;;;;;3.13;0.50;;;;;;;;;;4966168;28;20160;-62
2022/04/05 10:23:16;;;;;;;1.45;0.70;;;;;;;;;;4966096;28;20486;-61
2022/04/05 10:25:42;;;;;;;1.30;0.77;;;;;;;;;;4966263;28;20113;-62
2022/04/05 10:28:08;;;;;;;1.20;0.70;;;;;;;;;;4965752;28;20555;-61
2022/04/05 10:30:40;;;;;;;2.08;1.02;;;;;;;;;;4965445;28;20047;-61
2022/04/05 10:33:09;;;;;;;2.53;1.10;;;;;;;;;;4965944;28;20159;-61
2022/04/05 10:35:41;;;;;;;3.20;1.20;;;;;;;;;;4966213;28;20096;-62
2022/04/05 10:38:12;;;;;;;3.28;1.30;;;;;;;;;;4965574;28;20046;-62
2022/04/05 10:40:38;;;;;;;2.25;1.15;;;;;;;;;;4966289;28;20074;-63
2022/04/05 10:43:15;;;;;;;3.72;1.10;;;;;;;;;;4965873;28;20074;-63
2022/04/05 10:45:43;;;;;;;2.80;1.20;;;;;;;;;;4965420;28;20341;-62
2022/04/05 10:48:12;;;;;;;3.50;1.70;;;;;;;;;;4965726;28;20449;-62
2022/04/05 10:50:39;;;;;;;2.80;1.23;;;;;;;;;;4966257;28;20540;-62
2022/04/05 10:53:11;;;;;;;4.35;1.75;;;;;;;;;;4969292;28;20132;-62
2022/04/05 10:55:56;;;;;;;4.13;2.60;;;;;;;;;;4968791;28;20493;-62
2022/04/05 10:58:22;;;;;;;3.95;1.98;;;;;;;;;;4969259;28;20039;-62
2022/04/05 11:00:49;;;;;;;4.18;1.55;;;;;;;;;;4967439;28;20421;-62
2022/04/05 11:03:15;;;;;;;3.60;1.58;;;;;;;;;;4964773;28;20504;-62
2022/04/05 11:05:43;;;;;;;3.38;1.98;;;;;;;;;;4965721;28;20184;-62
2022/04/05 11:08:13;;;;;;;4.80;2.47;;;;;;;;;;4965918;28;20587;-61
2022/04/05 11:10:39;;;;;;;5.68;2.15;;;;;;;;;;4968125;28;20070;-61
2022/04/05 11:13:06;;;;;;;3.45;2.03;;;;;;;;;;4970514;28;20138;-61
2022/04/05 11:15:40;;;;;;;3.20;1.85;;;;;;;;;;4984546;28;20676;-62
2022/04/05 11:18:07;;;;;;;2.92;1.50;;;;;;;;;;4987523;28;20491;-61
2022/04/05 11:20:35;;;;;;;1.95;1.02;;;;;;;;;;4987652;28;20046;-62
2022/04/05 11:23:02;;;;;;;4.03;1.52;;;;;;;;;;4987177;28;20042;-61
2022/04/05 11:25:29;;;;;;;4.25;1.90;;;;;;;;;;4987065;28;20046;-61
2022/04/05 11:27:56;;;;;;;3.47;1.90;;;;;;;;;;4986681;28;20121;-62
2022/04/05 11:30:22;;;;;;;2.58;1.40;;;;;;;;;;4987279;28;20073;-62
2022/04/05 11:33:10;;;;;;;3.03;1.50;;;;;;;;;;4987713;28;20066;-61
2022/04/05 11:35:36;;;;;;;3.90;1.80;;;;;;;;;;4987855;28;20050;-61
2022/04/05 11:38:03;;;;;;;4.18;1.67;;;;;;;;;;4987409;28;20086;-62
2022/04/05 11:40:30;;;;;;;2.80;1.42;;;;;;;;;;4987846;28;20050;-59
2022/04/05 11:43:01;;;;;;;4.78;2.00;;;;;;;;;;4988118;28;20113;-59
2022/04/05 11:45:28;;;;;;;4.55;1.67;;;;;;;;;;4987176;28;20512;-59
2022/04/05 11:47:55;;;;;;;2.90;1.67;;;;;;;;;;4987762;28;20046;-59
2022/04/05 11:50:21;;;;;;;3.20;1.48;;;;;;;;;;4988240;28;20042;-59
2022/04/05 11:52:47;;;;;;;3.47;1.50;;;;;;;;;;4988546;28;20125;-59
2022/04/05 11:58:02;;;;;;;2.33;1.40;;;;;;;;;;4987636;28;20053;-59
2022/04/05 12:00:28;;;;;;;4.93;1.90;;;;;;;;;;4987040;28;20042;-59
2022/04/05 12:03:02;;;;;;;3.78;2.10;;;;;;;;;;4987528;28;20058;-59
2022/04/05 12:05:41;;;;;;;5.20;2.50;;;;;;;;;;4987915;28;20139;-59
2022/04/05 12:08:09;;;;;;;5.25;2.47;;;;;;;;;;4987505;28;20053;-59
2022/04/05 12:10:36;;;;;;;4.97;2.25;;;;;;;;;;4987913;28;20140;-59
2022/04/05 12:13:02;;;;;;;6.32;3.03;;;;;;;;;;4987152;28;20477;-59
2022/04/05 12:15:28;;;;;;;8.50;3.88;;;;;;;;;;4986957;28;20055;-59
2022/04/05 12:18:13;;;;;;;6.30;3.10;;;;;;;;;;4986706;28;20093;-59
2022/04/05 12:20:39;;;;;;;6.13;3.10;;;;;;;;;;4987257;28;20038;-59
2022/04/05 12:23:18;;;;;;;8.88;2.83;;;;;;;;;;4983884;28;20034;-59
2022/04/05 12:26:01;;;;;;;8.98;3.08;;;;;;;;;;4986472;28;20045;-59
2022/04/05 12:28:27;;;;;;;5.63;2.80;;;;;;;;;;4987566;28;20046;-59
2022/04/05 12:30:53;;;;;;;7.78;2.63;;;;;;;;;;4986670;28;20050;-61
2022/04/05 12:33:24;;;;;;;7.68;3.03;;;;;;;;;;4987393;28;20049;-59
2022/04/05 12:35:50;;;;;;;7.97;2.97;;;;;;;;;;4987717;28;20073;-59
2022/04/05 12:38:16;;;;;;;5.53;3.20;;;;;;;;;;4986407;28;20093;-59
2022/04/05 12:40:42;;;;;;;6.85;3.00;;;;;;;;;;4987309;28;20054;-59
2022/04/05 12:43:13;;;;;;;6.25;3.10;;;;;;;;;;4987008;28;20042;-60
2022/04/05 12:45:39;;;;;;;9.52;3.80;;;;;;;;;;4986282;28;20056;-59
2022/04/05 12:48:14;;;;;;;10.63;3.00;;;;;;;;;;4986215;28;20134;-59
2022/04/05 12:50:42;;;;;;;6.32;2.70;;;;;;;;;;4986278;28;20061;-59
2022/04/05 12:53:09;;;;;;;9.02;3.00;;;;;;;;;;4984708;28;20085;-59
2022/04/05 12:55:35;;;;;;;8.05;2.60;;;;;;;;;;4982022;28;20034;-59
2022/04/05 12:58:01;;;;;;;11.55;3.78;;;;;;;;;;4984767;28;20043;-59
2022/04/05 13:00:30;;;;;;;8.25;3.00;;;;;;;;;;4986489;28;20117;-59
2022/04/05 13:02:59;;;;;;;8.32;2.85;;;;;;;;;;4986140;28;20720;-59
2022/04/05 13:08:13;;;;;;;8.57;2.10;;;;;;;;;;4986573;28;20567;-59
2022/04/05 13:10:45;;;;;;;8.38;2.95;;;;;;;;;;4986273;28;20038;-59
2022/04/05 13:13:13;;;;;;;5.28;2.72;;;;;;;;;;4985276;28;20120;-61
2022/04/05 13:15:41;;;;;;;9.75;3.58;;;;;;;;;;4985210;28;20050;-61
2022/04/05 13:18:07;;;;;;;9.02;3.45;;;;;;;;;;4986438;28;20050;-61
2022/04/05 13:20:33;;;;;;;12.73;3.95;;;;;;;;;;4986636;28;20042;-61
2022/04/05 13:23:01;;;;;;;14.00;3.85;;;;;;;;;;4986056;28;20047;-62
2022/04/05 13:25:45;;;;;;;15.80;4.75;;;;;;;;;;4986546;28;20054;-62
2022/04/05 13:28:12;;;;;;;11.15;4.63;;;;;;;;;;4985990;28;20046;-62
2022/04/05 13:30:44;;;;;;;12.80;4.63;;;;;;;;;;4985733;28;20097;-62
2022/04/05 13:33:11;;;;;;;14.60;5.25;;;;;;;;;;4984706;28;20046;-62
2022/04/05 13:35:37;;;;;;;14.45;5.05;;;;;;;;;;4985659;28;20046;-62
2022/04/05 13:38:03;;;;;;;24.17;6.45;;;;;;;;;;4985843;28;20048;-62
2022/04/05 13:40:29;;;;;;;16.70;5.93;;;;;;;;;;4978127;28;20051;-63
2022/04/05 13:42:55;;;;;;;12.93;4.57;;;;;;;;;;4981463;28;20181;-62
2022/04/05 13:45:22;;;;;;;12.88;5.40;;;;;;;;;;4985913;28;20042;-62
2022/04/05 13:47:49;;;;;;;12.13;4.90;;;;;;;;;;4985303;28;20048;-63
2022/04/05 13:50:17;;;;;;;15.98;4.82;;;;;;;;;;4985516;28;20046;-62
2022/04/05 13:52:43;;;;;;;18.00;5.32;;;;;;;;;;4985992;28;20046;-63
2022/04/05 13:55:10;;;;;;;11.65;4.78;;;;;;;;;;4984751;28;20078;-64
2022/04/05 13:57:36;;;;;;;16.65;4.25;;;;;;;;;;4986150;28;20497;-64
2022/04/05 14:00:04;;;;;;;13.30;5.38;;;;;;;;;;4967475;28;20038;-65
2022/04/05 14:02:30;;;;;;;15.52;5.13;;;;;;;;;;4986090;28;20141;-65
2022/04/05 14:04:56;;;;;;;16.35;5.70;;;;;;;;;;4968530;28;20051;-64
2022/04/05 14:07:23;;;;;;;15.32;5.30;;;;;;;;;;4985846;28;20058;-64
2022/04/05 14:09:49;;;;;;;17.80;5.80;;;;;;;;;;4985847;28;20050;-64
2022/04/05 14:12:15;;;;;;;13.50;5.30;;;;;;;;;;4985432;28;20043;-64
2022/04/05 14:14:42;;;;;;;16.67;5.38;;;;;;;;;;4983905;28;20055;-64
2022/04/05 14:17:08;;;;;;;12.18;4.40;;;;;;;;;;4985341;28;20053;-64
2022/04/05 14:19:34;;;;;;;18.23;5.28;;;;;;;;;;4985539;28;20047;-64
2022/04/05 14:22:00;;;;;;;13.43;5.43;;;;;;;;;;4985455;28;20818;-64
2022/04/05 14:24:26;;;;;;;14.07;4.93;;;;;;;;;;4985242;28;20065;-64
2022/04/05 14:26:52;;;;;;;11.88;5.13;;;;;;;;;;4988697;28;20046;-64
2022/04/05 14:29:19;;;;;;;10.90;5.50;;;;;;;;;;4988988;28;20062;-63
2022/04/05 14:31:45;;;;;;;13.65;4.43;;;;;;;;;;4989660;28;20431;-64
2022/04/05 14:34:12;;;;;;;9.23;4.88;;;;;;;;;;4989270;28;20432;-64
2022/04/05 14:36:38;;;;;;;14.85;5.00;;;;;;;;;;4962811;28;20461;-64
2022/04/05 14:39:05;;;;;;;11.60;4.75;;;;;;;;;;4970251;28;20124;-63
2022/04/05 14:41:32;;;;;;;11.98;4.53;;;;;;;;;;4970527;28;20047;-63
2022/04/05 14:43:59;;;;;;;9.70;4.40;;;;;;;;;;4969492;28;20050;-64
2022/04/05 14:46:27;;;;;;;22.00;6.20;;;;;;;;;;4970542;28;20046;-64